首页
METAR-TAF:

METAR-TAF

机场 :

登海尔德, 荷兰

纬度: 52-55N, 经度: 004-47E, 海拔: 0米

当前天气观测

该预报发布于25分钟前的21:25 UTC
风速12节,风向,在北转西北东北之间变化
温度 4°C
湿度 56%
气压 1037 hPa
能见度10公里或以上
少量云层高于3700英尺

METAR: EHKD 292125Z AUTO 01012KT 330V050 9999 FEW037 04/M04 Q1037 BLU

时间: 23:50 (21:50 UTC)

预报

该预报发布于9小时和12分钟前的12:38 UTC
预报有效从29日的 13点(UTC)到 30日的 01点(UTC)
风速23节,风向北转东北,有时为36节阵风
能见度10公里或以上
少量云层高于4500英尺
成为
从 29日的 17点(UTC)到 29日的 19点(UTC)
风速16节,风向北转东北,有时为31节阵风
成为
从 29日的 20点(UTC)到 29日的 22点(UTC)
风速13节,风向
成为
从 29日的 23点(UTC)到 30日的 01点(UTC)
风速8节,风向
散云层高于4500英尺

TAF: EHKD 291238Z 2913/3001 02023G36KT 9999 FEW045 BECMG 2917/2919 02016G31KT BECMG 2920/2922 01013KT BECMG 2923/3001 36008KT SCT045

超过4000个机场的气象观测和天气预报(METAR&TAF报告)。

可查询的气象台以黄色和红色小点在地图上表示。

将鼠标移到小点上方,可查看气象台名称。

然后点击查看天气观测和预报。

如需切换地图:点击带黑十字的绿色按钮放大地图;点击带横线的绿色按钮缩小地图;或者点击绿色箭头查看邻近地区的地图。


METAR-TAF: